Time;durP1;ratioP1;P1;durP2;ratioP2;P2;SDS_P1;SDS_P2;PMS_P1;PMS_P2;Temp;Humidity;BMP_temperature;BMP_pressure;BME280_temperature;BME280_humidity;BME280_pressure;Samples;Min_cycle;Max_cycle;Signal;HPM_P1;HPM_P2
2024/04/04 00:01:18;;;;;;;;;;;;;;;11.50;63.60;100129.39;106388;1254;72496;-80
2024/04/04 00:03:46;;;;;;;;;;;;;;;11.53;63.97;100123.81;105918;1259;62056;-77
2024/04/04 00:06:13;;;;;;;;;;;;;;;11.57;63.53;100124.70;106020;1253;61931;-80
2024/04/04 00:08:41;;;;;;;;;;;;;;;11.60;63.43;100135.23;106053;1256;75802;-77
2024/04/04 00:11:12;;;;;;;;;;;;;;;11.64;63.06;100134.19;107426;1257;68387;-78
2024/04/04 00:13:40;;;;;;;;;;;;;;;11.71;62.87;100132.24;107118;1253;71459;-80
2024/04/04 00:16:07;;;;;;;;;;;;;;;11.76;62.56;100128.49;105927;1254;62142;-81
2024/04/04 00:18:35;;;;;;;;;;;;;;;11.79;62.31;100126.81;106115;1254;61913;-77
2024/04/04 00:21:02;;;;;;;;;;;;;;;11.82;62.42;100121.79;106076;1259;75446;-77
2024/04/04 00:23:30;;;;;;;;;;;;;;;11.84;62.39;100118.52;106029;1257;68468;-77
2024/04/04 00:25:58;;;;;;;;;;;;;;;11.86;62.07;100117.53;106009;1254;71881;-77
2024/04/04 00:28:26;;;;;;;;;;;;;;;11.87;62.33;100118.47;105899;1258;62016;-77
2024/04/04 00:30:54;;;;;;;;;;;;;;;11.87;61.93;100121.75;105874;1253;62155;-77
2024/04/04 00:33:22;;;;;;;;;;;;;;;11.88;61.97;100126.45;105992;1254;74559;-78
2024/04/04 00:35:49;;;;;;;;;;;;;;;11.89;62.02;100123.73;106588;1254;67697;-78
2024/04/04 00:38:17;;;;;;;;;;;;;;;11.89;61.69;100122.86;106006;1254;72444;-77
2024/04/04 00:40:45;;;;;;;;;;;;;;;11.89;61.80;100126.10;105947;1254;62165;-77
2024/04/04 00:43:12;;;;;;;;;;;;;;;11.91;61.93;100126.95;106199;1254;62108;-81
2024/04/04 00:45:40;;;;;;;;;;;;;;;11.93;62.04;100128.55;105946;1256;74176;-81
2024/04/04 00:48:09;;;;;;;;;;;;;;;11.94;61.99;100123.67;106305;1253;68738;-81
2024/04/04 00:50:37;;;;;;;;;;;;;;;11.95;61.60;100125.13;105944;1254;72813;-77
2024/04/04 00:53:05;;;;;;;;;;;;;;;11.96;61.41;100125.55;106668;1253;62148;-78
2024/04/04 00:55:32;;;;;;;;;;;;;;;11.96;61.21;100129.50;105890;1252;247939;-81
2024/04/04 00:58:00;;;;;;;;;;;;;;;11.96;61.18;100126.49;105970;1254;75442;-77
2024/04/04 01:00:29;;;;;;;;;;;;;;;11.94;61.06;100125.87;106070;1256;67309;-81
2024/04/04 01:02:57;;;;;;;;;;;;;;;11.90;61.22;100123.78;105880;1254;72729;-77
2024/04/04 01:05:24;;;;;;;;;;;;;;;11.87;61.19;100123.21;105882;1254;62098;-81
2024/04/04 01:07:52;;;;;;;;;;;;;;;11.87;61.38;100125.42;105860;1254;62139;-81
2024/04/04 01:10:19;;;;;;;;;;;;;;;11.88;61.35;100123.10;106131;1256;75489;-81
2024/04/04 01:12:47;;;;;;;;;;;;;;;11.89;61.21;100125.38;106665;1254;68414;-77
2024/04/04 01:15:14;;;;;;;;;;;;;;;11.92;60.86;100128.20;106001;1254;72687;-80
2024/04/04 01:17:42;;;;;;;;;;;;;;;11.96;60.57;100124.23;105757;1258;63977;-80
2024/04/04 01:20:09;;;;;;;;;;;;;;;12.00;60.18;100130.27;105869;1259;62225;-77
2024/04/04 01:22:37;;;;;;;;;;;;;;;12.03;60.11;100124.52;105934;1254;75458;-77
2024/04/04 01:25:04;;;;;;;;;;;;;;;12.08;59.80;100127.31;106087;1254;67127;-77
2024/04/04 01:27:32;;;;;;;;;;;;;;;12.13;58.87;100126.67;105886;1256;71453;-77
2024/04/04 01:29:59;;;;;;;;;;;;;;;12.18;58.01;100126.42;105841;1254;62107;-80
2024/04/04 01:32:27;;;;;;;;;;;;;;;12.23;57.60;100130.06;108179;1252;62047;-81
2024/04/04 01:34:55;;;;;;;;;;;;;;;12.28;57.45;100129.07;106101;1254;75425;-77
2024/04/04 01:37:22;;;;;;;;;;;;;;;12.31;57.01;100118.66;105957;1254;68696;-77
2024/04/04 01:39:50;;;;;;;;;;;;;;;12.35;56.45;100122.61;105783;1257;72698;-77
2024/04/04 01:42:17;;;;;;;;;;;;;;;12.38;56.01;100121.84;105934;1254;62018;-80
2024/04/04 01:44:45;;;;;;;;;;;;;;;12.39;55.47;100121.16;105950;1254;62222;-77
2024/04/04 01:47:12;;;;;;;;;;;;;;;12.41;55.25;100127.38;105912;1253;74624;-77
2024/04/04 01:49:40;;;;;;;;;;;;;;;12.42;54.78;100127.36;105890;1254;68463;-80
2024/04/04 01:52:07;;;;;;;;;;;;;;;12.43;54.41;100127.99;106012;1254;71882;-81
2024/04/04 01:54:35;;;;;;;;;;;;;;;12.45;54.26;100132.85;106434;1254;62329;-77
2024/04/04 01:57:04;;;;;;;;;;;;;;;12.45;53.98;100137.94;106009;1253;62209;-77
2024/04/04 01:59:31;;;;;;;;;;;;;;;12.44;53.92;100136.15;105989;1259;74216;-77
2024/04/04 02:01:59;;;;;;;;;;;;;;;12.41;54.02;100133.52;105821;1254;68475;-77
2024/04/04 02:04:26;;;;;;;;;;;;;;;12.37;53.88;100137.91;105808;1256;71152;-81
2024/04/04 02:06:54;;;;;;;;;;;;;;;12.32;53.94;100136.39;105667;1254;62492;-81
2024/04/04 02:09:22;;;;;;;;;;;;;;;12.29;54.06;100136.50;106007;1253;62047;-81
2024/04/04 02:11:49;;;;;;;;;;;;;;;12.28;54.17;100131.27;105960;1254;73738;-77
2024/04/04 02:14:17;;;;;;;;;;;;;;;12.27;53.98;100132.32;106142;1258;67396;-77
2024/04/04 02:16:45;;;;;;;;;;;;;;;12.29;54.15;100135.30;106217;1252;72966;-81
2024/04/04 02:19:14;;;;;;;;;;;;;;;12.30;54.09;100132.00;106360;1253;62155;-81
2024/04/04 02:21:41;;;;;;;;;;;;;;;12.30;54.15;100135.13;105992;1254;60373;-80
2024/04/04 02:24:09;;;;;;;;;;;;;;;12.27;54.05;100130.13;105917;1256;75470;-77
2024/04/04 02:26:36;;;;;;;;;;;;;;;12.24;54.12;100134.30;106098;1252;68393;-81
2024/04/04 02:29:05;;;;;;;;;;;;;;;12.19;54.03;100135.61;105970;1254;72632;-77
2024/04/04 02:31:33;;;;;;;;;;;;;;;12.15;54.28;100132.89;105911;1257;62232;-80
2024/04/04 02:34:00;;;;;;;;;;;;;;;12.11;54.40;100131.27;105978;1254;62031;-81
2024/04/04 02:36:29;;;;;;;;;;;;;;;12.08;54.49;100135.40;106624;1257;75934;-80
2024/04/04 02:38:57;;;;;;;;;;;;;;;12.04;54.61;100134.69;106025;1254;69311;-80
2024/04/04 02:41:24;;;;;;;;;;;;;;;12.01;54.82;100139.06;106038;1256;73168;-77
2024/04/04 02:43:52;;;;;;;;;;;;;;;11.99;54.90;100136.73;105925;1254;62085;-76
2024/04/04 02:46:19;;;;;;;;;;;;;;;11.99;55.01;100135.86;105934;1254;60874;-80
2024/04/04 02:48:47;;;;;;;;;;;;;;;11.97;55.28;100135.02;106093;1257;75598;-77
2024/04/04 02:51:14;;;;;;;;;;;;;;;11.94;55.71;100136.92;105982;1254;68387;-76
2024/04/04 02:53:42;;;;;;;;;;;;;;;11.92;55.84;100135.48;105856;1254;71178;-77
2024/04/04 02:56:09;;;;;;;;;;;;;;;11.90;55.87;100138.17;106988;1253;62132;-76
2024/04/04 02:58:37;;;;;;;;;;;;;;;11.88;55.90;100143.98;105953;1254;62053;-80
2024/04/04 03:01:04;;;;;;;;;;;;;;;11.86;56.04;100144.41;105958;1254;75483;-82
2024/04/04 03:03:32;;;;;;;;;;;;;;;11.85;56.09;100145.13;106118;1256;67534;-81
2024/04/04 03:05:59;;;;;;;;;;;;;;;11.84;56.14;100146.34;105917;1259;72697;-77
2024/04/04 03:08:27;;;;;;;;;;;;;;;11.81;56.39;100153.16;105838;1254;62264;-81
2024/04/04 03:10:54;;;;;;;;;;;;;;;11.78;56.41;100150.80;105968;1254;62160;-81
2024/04/04 03:13:22;;;;;;;;;;;;;;;11.75;56.58;100147.79;105931;1253;75442;-81
2024/04/04 03:15:56;;;;;;;;;;;;;;;11.75;56.83;100155.05;106009;1254;67190;-78
2024/04/04 03:18:24;;;;;;;;;;;;;;;11.73;56.83;100152.95;106599;1254;71392;-78
2024/04/04 03:20:51;;;;;;;;;;;;;;;11.68;57.16;100154.39;105855;1259;62155;-81
2024/04/04 03:23:19;;;;;;;;;;;;;;;11.63;57.63;100154.23;105946;1254;62092;-78
2024/04/04 03:25:46;;;;;;;;;;;;;;;11.60;57.79;100160.13;105959;1254;74141;-81
2024/04/04 03:28:14;;;;;;;;;;;;;;;11.57;58.08;100158.46;106127;1254;67444;-78
2024/04/04 03:30:41;;;;;;;;;;;;;;;11.56;58.59;100160.27;105943;1254;71370;-81
2024/04/04 03:33:09;;;;;;;;;;;;;;;11.55;58.90;100159.05;105857;1254;62149;-78
2024/04/04 03:35:38;;;;;;;;;;;;;;;11.56;59.03;100160.44;107151;1254;62085;-78
2024/04/04 03:38:06;;;;;;;;;;;;;;;11.59;59.01;100163.13;105968;1254;75916;-77
2024/04/04 03:40:33;;;;;;;;;;;;;;;11.63;59.22;100169.77;106495;1254;67350;-77
2024/04/04 03:43:04;;;;;;;;;;;;;;;11.68;59.00;100172.46;106357;1254;71400;-81
2024/04/04 03:45:37;;;;;;;;;;;;;;;11.70;58.88;100174.13;106268;1258;62188;-78
2024/04/04 03:48:05;;;;;;;;;;;;;;;11.73;58.87;100172.17;106302;1259;62131;-78
2024/04/04 03:50:33;;;;;;;;;;;;;;;11.74;59.05;100167.45;106280;1256;75445;-78
2024/04/04 03:53:00;;;;;;;;;;;;;;;11.76;59.21;100170.71;106255;1254;68530;-81
2024/04/04 03:55:28;;;;;;;;;;;;;;;11.82;58.99;100170.73;106918;1254;71478;-78
2024/04/04 03:57:55;;;;;;;;;;;;;;;11.89;58.91;100176.36;106294;1259;62031;-81
2024/04/04 04:00:23;;;;;;;;;;;;;;;11.95;58.91;100180.98;106282;1259;62104;-78
2024/04/04 04:02:50;;;;;;;;;;;;;;;12.00;58.79;100176.82;106472;1254;75503;-78
2024/04/04 04:05:18;;;;;;;;;;;;;;;12.05;58.61;100180.03;106345;1258;67095;-78
2024/04/04 04:07:45;;;;;;;;;;;;;;;12.12;58.96;100180.54;106420;1254;72413;-81
2024/04/04 04:10:13;;;;;;;;;;;;;;;12.19;58.64;100176.04;106329;1254;62076;-81
2024/04/04 04:12:40;;;;;;;;;;;;;;;12.29;58.30;100178.70;106127;1259;62044;-81
2024/04/04 04:15:08;;;;;;;;;;;;;;;12.40;58.01;100179.13;106655;1253;74240;-81
2024/04/04 04:17:35;;;;;;;;;;;;;;;12.51;57.47;100186.30;106327;1256;67400;-82
2024/04/04 04:21:17;;;;;;;;;;;;;;;12.61;57.42;100197.70;106331;1254;71136;-81
2024/04/04 04:22:53;;;;;;;;;;;;;;;12.72;57.15;100194.94;106356;1253;62025;-81
2024/04/04 04:25:21;;;;;;;;;;;;;;;12.81;56.94;100199.02;106177;1254;61933;-81
2024/04/04 04:27:48;;;;;;;;;;;;;;;12.88;56.50;100200.05;106237;1254;75479;-81
2024/04/04 04:30:16;;;;;;;;;;;;;;;12.93;56.06;100200.30;106633;1258;67413;-81
2024/04/04 04:32:43;;;;;;;;;;;;;;;12.95;55.67;100206.45;106034;1256;71421;-81
2024/04/04 04:35:11;;;;;;;;;;;;;;;12.97;55.48;100202.92;105958;1258;62065;-81
2024/04/04 04:37:38;;;;;;;;;;;;;;;13.01;55.48;100204.98;105858;1253;62095;-81
2024/04/04 04:40:06;;;;;;;;;;;;;;;13.07;55.52;100204.48;105838;1254;75404;-81
2024/04/04 04:42:34;;;;;;;;;;;;;;;13.13;55.12;100205.97;105776;1259;67402;-78
2024/04/04 04:45:02;;;;;;;;;;;;;;;13.20;54.93;100209.02;107260;1254;72722;-77
2024/04/04 04:47:29;;;;;;;;;;;;;;;13.24;54.42;100215.37;105939;1254;62598;-81
2024/04/04 04:49:57;;;;;;;;;;;;;;;13.28;55.20;100213.36;106063;1256;62729;-81
2024/04/04 04:52:25;;;;;;;;;;;;;;;13.29;54.76;100216.89;105938;1254;75452;-81
2024/04/04 04:54:52;;;;;;;;;;;;;;;13.32;54.72;100219.91;105934;1259;67241;-77
2024/04/04 04:57:20;;;;;;;;;;;;;;;13.35;54.47;100218.10;105948;1259;72685;-81
2024/04/04 04:59:47;;;;;;;;;;;;;;;13.40;54.18;100216.41;106033;1256;62080;-77
2024/04/04 05:02:16;;;;;;;;;;;;;;;13.44;53.93;100221.29;105907;1254;62247;-77
2024/04/04 05:04:44;;;;;;;;;;;;;;;13.47;53.95;100222.16;105843;1259;75176;-78
2024/04/04 05:07:12;;;;;;;;;;;;;;;13.51;53.77;100224.16;106187;1254;68428;-76
2024/04/04 05:09:39;;;;;;;;;;;;;;;13.55;53.60;100224.97;105919;1254;72603;-76
2024/04/04 05:12:07;;;;;;;;;;;;;;;13.59;53.67;100225.73;105851;1256;62507;-80
2024/04/04 05:14:35;;;;;;;;;;;;;;;13.62;53.86;100223.41;106201;1254;62040;-77
2024/04/04 05:17:02;;;;;;;;;;;;;;;13.66;53.63;100221.22;106641;1251;73157;-80
2024/04/04 05:19:30;;;;;;;;;;;;;;;13.74;53.42;100225.47;106020;1252;68263;-77
2024/04/04 05:21:57;;;;;;;;;;;;;;;13.88;53.90;100221.89;105962;1254;72737;-77
2024/04/04 05:24:25;;;;;;;;;;;;;;;14.06;53.37;100223.75;106130;1256;62062;-81
2024/04/04 05:26:52;;;;;;;;;;;;;;;14.21;52.66;100226.49;105800;1252;62034;-81
2024/04/04 05:29:20;;;;;;;;;;;;;;;14.28;52.41;100224.08;106038;1256;75376;-81
2024/04/04 05:31:47;;;;;;;;;;;;;;;14.31;52.04;100230.89;105871;1259;67346;-81
2024/04/04 05:34:17;;;;;;;;;;;;;;;14.31;52.22;100232.65;106214;1254;72670;-81
2024/04/04 05:36:45;;;;;;;;;;;;;;;14.31;52.38;100233.20;106435;1253;62142;-81
2024/04/04 05:39:12;;;;;;;;;;;;;;;14.34;52.92;100236.33;105892;1259;62152;-81
2024/04/04 05:41:41;;;;;;;;;;;;;;;14.38;53.47;100239.52;106120;1254;74141;-81
2024/04/04 05:44:09;;;;;;;;;;;;;;;14.43;53.41;100239.08;105906;1259;67000;-81
2024/04/04 05:46:37;;;;;;;;;;;;;;;14.49;53.87;100239.20;106022;1256;72699;-81
2024/04/04 05:49:04;;;;;;;;;;;;;;;14.56;54.23;100242.16;105855;1254;62184;-81
2024/04/04 05:51:32;;;;;;;;;;;;;;;14.59;54.10;100246.15;106673;1258;62106;-81
2024/04/04 05:53:59;;;;;;;;;;;;;;;14.62;54.76;100253.67;106002;1254;75419;-80
2024/04/04 05:56:27;;;;;;;;;;;;;;;14.66;54.53;100252.11;105997;1254;68550;-81
2024/04/04 05:58:55;;;;;;;;;;;;;;;14.69;55.42;100256.05;105671;1257;71901;-81
2024/04/04 06:01:23;;;;;;;;;;;;;;;14.79;56.46;100260.81;105831;1254;62072;-81
2024/04/04 06:03:52;;;;;;;;;;;;;;;14.89;55.64;100264.42;105902;1254;62144;-80
2024/04/04 06:06:20;;;;;;;;;;;;;;;14.93;56.31;100268.11;106356;1253;77545;-80
2024/04/04 06:08:50;;;;;;;;;;;;;;;14.96;55.74;100269.36;106424;1254;69736;-80
2024/04/04 06:11:17;;;;;;;;;;;;;;;14.91;56.03;100272.48;106247;1257;74937;-81
2024/04/04 06:13:45;;;;;;;;;;;;;;;14.88;56.38;100273.86;106090;1254;62133;-80
2024/04/04 06:16:12;;;;;;;;;;;;;;;14.88;56.85;100280.89;106082;1259;61977;-80
2024/04/04 06:18:40;;;;;;;;;;;;;;;14.90;56.82;100287.18;105832;1258;77311;-80
2024/04/04 06:21:07;;;;;;;;;;;;;;;14.95;57.14;100283.04;106141;1254;69913;-81
2024/04/04 06:23:35;;;;;;;;;;;;;;;15.02;57.34;100283.30;106321;1259;73761;-80
2024/04/04 06:26:04;;;;;;;;;;;;;;;15.10;57.58;100287.36;105923;1258;62041;-80
2024/04/04 06:28:31;;;;;;;;;;;;;;;15.21;58.39;100289.54;105905;1258;62130;-80
2024/04/04 06:30:59;;;;;;;;;;;;;;;15.36;57.58;100299.66;106099;1251;76122;-81
2024/04/04 06:33:27;;;;;;;;;;;;;;;15.43;56.66;100302.04;105836;1254;70302;-80
2024/04/04 06:35:54;;;;;;;;;;;;;;;15.42;56.65;100303.16;106811;1252;73682;-80
2024/04/04 06:38:22;;;;;;;;;;;;;;;15.40;56.43;100307.30;105871;1260;62139;-80
2024/04/04 06:40:49;;;;;;;;;;;;;;;15.43;57.05;100301.69;106056;1254;62213;-80
2024/04/04 06:43:19;;;;;;;;;;;;;;;15.50;56.64;100305.54;106058;1256;77819;-80
2024/04/04 06:45:47;;;;;;;;;;;;;;;15.48;56.15;100306.02;105941;1259;69937;-79
2024/04/04 06:48:15;;;;;;;;;;;;;;;15.38;55.92;100310.59;106237;1256;73813;-79
2024/04/04 06:50:42;;;;;;;;;;;;;;;15.32;57.25;100309.58;106383;1253;62075;-79
2024/04/04 06:53:10;;;;;;;;;;;;;;;15.35;57.88;100306.86;106033;1257;62136;-79
2024/04/04 06:55:38;;;;;;;;;;;;;;;15.40;57.64;100310.64;106030;1253;76604;-79
2024/04/04 06:58:05;;;;;;;;;;;;;;;15.39;57.96;100308.71;106058;1258;71217;-79
2024/04/04 07:00:33;;;;;;;;;;;;;;;15.45;59.18;100311.11;105994;1259;73841;-80
2024/04/04 07:03:01;;;;;;;;;;;;;;;15.58;58.90;100313.33;106485;1254;62134;-80
2024/04/04 07:05:29;;;;;;;;;;;;;;;15.71;58.29;100315.73;105894;1260;62118;-79
2024/04/04 07:07:56;;;;;;;;;;;;;;;15.74;56.83;100315.83;106059;1256;77907;-79
2024/04/04 07:10:24;;;;;;;;;;;;;;;15.65;56.30;100320.39;106036;1252;70105;-80
2024/04/04 07:12:51;;;;;;;;;;;;;;;15.56;56.94;100323.39;106052;1254;74467;-80
2024/04/04 07:15:19;;;;;;;;;;;;;;;15.55;57.67;100324.52;105904;1254;62225;-80
2024/04/04 07:17:48;;;;;;;;;;;;;;;15.59;57.85;100323.69;107262;1253;62069;-80
2024/04/04 07:20:15;;;;;;;;;;;;;;;15.64;57.20;100325.31;105900;1259;77452;-80
2024/04/04 07:22:43;;;;;;;;;;;;;;;15.71;58.27;100331.20;106075;1254;70602;-80
2024/04/04 07:25:12;;;;;;;;;;;;;;;15.80;58.79;100332.09;105786;1254;74178;-79
2024/04/04 07:27:40;;;;;;;;;;;;;;;15.88;58.70;100339.30;105813;1260;62245;-80
2024/04/04 07:30:07;;;;;;;;;;;;;;;15.99;56.89;100340.43;105993;1259;62125;-80
2024/04/04 07:32:35;;;;;;;;;;;;;;;16.02;56.58;100338.10;106553;1252;76612;-80
2024/04/04 07:35:03;;;;;;;;;;;;;;;16.06;56.22;100344.02;106081;1254;70316;-79
2024/04/04 07:37:30;;;;;;;;;;;;;;;16.08;55.03;100336.78;105950;1254;73789;-80
2024/04/04 07:39:59;;;;;;;;;;;;;;;16.11;55.32;100341.27;106040;1255;62069;-80
2024/04/04 07:42:26;;;;;;;;;;;;;;;16.21;54.79;100340.13;106441;1256;62065;-81
2024/04/04 07:44:54;;;;;;;;;;;;;;;16.27;53.40;100344.91;106476;1259;77433;-81
2024/04/04 07:47:22;;;;;;;;;;;;;;;16.27;52.83;100350.00;106073;1259;68693;-81
2024/04/04 07:49:49;;;;;;;;;;;;;;;16.23;52.63;100355.09;105952;1255;74088;-80
2024/04/04 07:52:17;;;;;;;;;;;;;;;16.20;51.90;100356.45;106418;1254;62064;-81
2024/04/04 07:54:45;;;;;;;;;;;;;;;16.18;51.88;100354.13;106325;1255;62077;-81
2024/04/04 07:57:12;;;;;;;;;;;;;;;16.20;52.26;100359.81;106325;1254;77380;-81
2024/04/04 07:59:44;;;;;;;;;;;;;;;16.26;52.02;100360.36;107016;1254;68985;-78
2024/04/04 08:02:11;;;;;;;;;;;;;;;16.32;51.49;100360.33;106067;1254;73293;-80
2024/04/04 08:04:39;;;;;;;;;;;;;;;16.36;50.93;100362.87;105889;1259;62024;-77
2024/04/04 08:07:06;;;;;;;;;;;;;;;16.38;50.49;100364.77;105926;1256;62302;-78
2024/04/04 08:09:34;;;;;;;;;;;;;;;16.29;49.70;100362.08;105940;1257;77585;-76
2024/04/04 08:12:02;;;;;;;;;;;;;;;16.20;49.98;100362.63;106307;1254;69401;-78
2024/04/04 08:14:30;;;;;;;;;;;;;;;16.22;49.64;100370.61;106481;1254;73708;-78
2024/04/04 08:16:59;;;;;;;;;;;;;;;16.28;48.31;100368.01;105894;1259;62184;-78
2024/04/04 08:19:27;;;;;;;;;;;;;;;16.36;48.72;100362.70;105956;1256;62125;-78
2024/04/04 08:21:54;;;;;;;;;;;;;;;16.50;47.85;100365.05;105885;1259;77809;-78
2024/04/04 08:24:22;;;;;;;;;;;;;;;16.58;46.46;100368.80;105974;1256;70731;-80
2024/04/04 08:26:49;;;;;;;;;;;;;;;16.50;46.14;100375.09;105945;1258;73773;-80
2024/04/04 08:29:17;;;;;;;;;;;;;;;16.41;46.16;100374.47;107398;1254;62108;-81
2024/04/04 08:31:44;;;;;;;;;;;;;;;16.32;45.99;100372.07;105990;1253;62154;-80
2024/04/04 08:34:12;;;;;;;;;;;;;;;16.27;46.58;100370.79;106103;1254;75661;-78
2024/04/04 08:36:40;;;;;;;;;;;;;;;16.27;46.47;100368.15;106186;1254;71211;-80
2024/04/04 08:39:08;;;;;;;;;;;;;;;16.32;46.55;100368.16;106149;1259;73772;-78
2024/04/04 08:41:36;;;;;;;;;;;;;;;16.45;46.33;100372.44;105984;1260;62051;-78
2024/04/04 08:44:05;;;;;;;;;;;;;;;16.53;46.49;100367.87;105983;1257;62287;-79
2024/04/04 08:46:34;;;;;;;;;;;;;;;16.51;45.87;100370.59;105976;1254;75586;-78
2024/04/04 08:49:01;;;;;;;;;;;;;;;16.47;46.35;100369.63;105908;1254;71152;-77
2024/04/04 08:51:29;;;;;;;;;;;;;;;16.49;46.68;100368.95;105814;1258;74809;-78
2024/04/04 08:53:56;;;;;;;;;;;;;;;16.58;46.70;100373.09;105972;1259;61939;-79
2024/04/04 08:56:25;;;;;;;;;;;;;;;16.65;46.14;100376.53;105890;1254;61420;-81
2024/04/04 08:58:53;;;;;;;;;;;;;;;16.65;45.93;100377.44;106120;1257;76931;-77
2024/04/04 09:01:20;;;;;;;;;;;;;;;16.65;45.82;100379.33;107314;1254;70742;-78
2024/04/04 09:03:57;;;;;;;;;;;;;;;16.71;46.34;100384.62;106098;1256;74737;-80
2024/04/04 09:06:25;;;;;;;;;;;;;;;16.80;45.52;100388.17;105923;1260;61923;-77
2024/04/04 09:08:56;;;;;;;;;;;;;;;16.86;43.98;100394.64;105673;1254;62200;-78
2024/04/04 09:11:24;;;;;;;;;;;;;;;16.77;43.45;100389.13;106068;1254;77535;-78
2024/04/04 09:14:01;;;;;;;;;;;;;;;16.68;43.53;100395.04;106089;1259;70274;-80
2024/04/04 09:16:29;;;;;;;;;;;;;;;16.63;43.83;100389.95;106029;1256;74733;-78
2024/04/04 09:19:06;;;;;;;;;;;;;;;16.69;43.76;100388.00;105969;1258;62627;-78
2024/04/04 09:21:36;;;;;;;;;;;;;;;16.69;43.77;100399.84;106022;1256;61934;-80
2024/04/04 09:24:04;;;;;;;;;;;;;;;16.71;43.25;100393.70;105846;1254;77475;-79
2024/04/04 09:26:32;;;;;;;;;;;;;;;16.71;43.65;100398.19;106102;1257;70101;-79
2024/04/04 09:28:59;;;;;;;;;;;;;;;16.72;43.49;100396.34;106147;1254;74722;-80
2024/04/04 09:31:27;;;;;;;;;;;;;;;16.74;43.70;100399.04;106001;1255;62230;-80
2024/04/04 09:33:57;;;;;;;;;;;;;;;16.77;42.91;100400.07;105982;1260;62120;-78
2024/04/04 09:36:24;;;;;;;;;;;;;;;16.75;42.39;100404.92;106581;1254;75767;-78
2024/04/04 09:38:52;;;;;;;;;;;;;;;16.71;42.38;100402.60;105825;1255;70702;-78
2024/04/04 09:41:21;;;;;;;;;;;;;;;16.72;41.91;100400.27;106057;1254;73810;-79
2024/04/04 09:43:55;;;;;;;;;;;;;;;16.71;42.63;100404.16;105997;1257;62174;-80
2024/04/04 09:46:23;;;;;;;;;;;;;;;16.70;42.05;100406.66;106149;1254;62325;-78
2024/04/04 09:48:54;;;;;;;;;;;;;;;16.59;42.23;100415.37;106056;1257;77797;-80
2024/04/04 09:51:21;;;;;;;;;;;;;;;16.47;42.04;100418.81;105969;1253;70546;-77
2024/04/04 09:53:49;;;;;;;;;;;;;;;16.45;41.92;100416.82;106169;1256;74747;-80
2024/04/04 09:56:19;;;;;;;;;;;;;;;16.51;42.27;100418.36;105972;1260;62117;-78
2024/04/04 09:58:46;;;;;;;;;;;;;;;16.60;41.85;100424.68;106155;1258;62039;-78
2024/04/04 10:01:21;;;;;;;;;;;;;;;16.64;41.03;100422.75;106123;1257;77300;-78
2024/04/04 10:03:49;;;;;;;;;;;;;;;16.60;41.17;100426.27;106042;1257;69852;-80
2024/04/04 10:06:33;;;;;;;;;;;;;;;16.51;41.40;100427.48;106151;1256;73928;-78
2024/04/04 10:09:12;;;;;;;;;;;;;;;16.50;42.50;100433.52;105970;1257;62105;-80
2024/04/04 10:11:40;;;;;;;;;;;;;;;16.61;42.08;100434.74;105853;1257;62194;-78
2024/04/04 10:14:14;;;;;;;;;;;;;;;16.72;41.46;100438.79;105866;1259;75641;-78
2024/04/04 10:16:45;;;;;;;;;;;;;;;16.85;41.58;100438.37;105797;1254;69864;-78
2024/04/04 10:19:13;;;;;;;;;;;;;;;16.91;41.01;100440.34;106213;1254;74905;-78
2024/04/04 10:21:41;;;;;;;;;;;;;;;16.86;40.52;100438.23;106404;1256;62122;-78
2024/04/04 10:24:09;;;;;;;;;;;;;;;16.77;41.03;100438.86;106232;1260;62134;-78
2024/04/04 10:26:37;;;;;;;;;;;;;;;16.75;41.62;100443.04;106288;1252;77821;-78
2024/04/04 10:29:11;;;;;;;;;;;;;;;16.83;41.21;100444.41;106321;1257;69966;-80
2024/04/04 10:31:57;;;;;;;;;;;;;;;16.86;40.73;100450.42;106499;1258;75360;-80
2024/04/04 10:34:24;;;;;;;;;;;;;;;16.83;40.21;100453.88;106322;1260;62216;-78
2024/04/04 10:36:53;;;;;;;;;;;;;;;16.75;40.45;100447.45;106302;1255;62137;-80
2024/04/04 10:39:23;;;;;;;;;;;;;;;16.75;40.79;100457.05;106315;1254;77701;-80
2024/04/04 10:41:52;;;;;;;;;;;;;;;16.83;40.95;100453.79;106275;1255;70931;-79
2024/04/04 10:44:20;;;;;;;;;;;;;;;16.93;41.50;100455.95;106178;1257;74470;-81
2024/04/04 10:46:51;;;;;;;;;;;;;;;17.04;40.70;100460.33;106216;1259;62015;-80
2024/04/04 10:49:20;;;;;;;;;;;;;;;17.02;40.36;100461.90;106399;1257;61974;-79
2024/04/04 10:51:49;;;;;;;;;;;;;;;16.98;39.44;100459.34;106331;1254;77438;-79
2024/04/04 10:54:17;;;;;;;;;;;;;;;16.87;40.92;100453.67;106407;1257;70143;-81
2024/04/04 10:56:45;;;;;;;;;;;;;;;16.78;40.52;100456.11;106431;1260;72817;-80
2024/04/04 10:59:15;;;;;;;;;;;;;;;16.82;41.65;100456.23;105930;1254;62380;-79
2024/04/04 11:01:46;;;;;;;;;;;;;;;16.96;41.36;100455.38;105997;1257;62075;-77
2024/04/04 11:04:14;;;;;;;;;;;;;;;16.95;41.36;100448.33;106349;1260;77769;-80
2024/04/04 11:06:42;;;;;;;;;;;;;;;16.96;40.55;100462.15;105996;1257;70769;-78
2024/04/04 11:09:20;;;;;;;;;;;;;;;17.05;39.59;100461.17;105978;1255;73960;-81
2024/04/04 11:11:49;;;;;;;;;;;;;;;17.15;39.75;100462.42;106060;1256;62028;-81
2024/04/04 11:14:17;;;;;;;;;;;;;;;17.30;40.43;100460.96;106038;1254;62082;-81
2024/04/04 11:16:44;;;;;;;;;;;;;;;17.47;39.32;100466.00;105927;1266;77316;-80
2024/04/04 11:19:13;;;;;;;;;;;;;;;17.51;38.79;100461.71;105930;1254;71121;-80
2024/04/04 11:21:41;;;;;;;;;;;;;;;17.45;39.02;100462.30;106431;1254;72808;-79
2024/04/04 11:24:09;;;;;;;;;;;;;;;17.43;38.98;100468.25;106334;1259;62025;-79
2024/04/04 11:26:36;;;;;;;;;;;;;;;17.44;38.88;100470.75;106383;1260;62065;-79
2024/04/04 11:29:04;;;;;;;;;;;;;;;17.43;39.10;100474.59;106719;1259;77564;-81
2024/04/04 11:31:31;;;;;;;;;;;;;;;17.40;39.47;100474.91;106445;1260;70191;-81
2024/04/04 11:33:59;;;;;;;;;;;;;;;17.42;38.84;100472.84;106543;1256;74516;-79
2024/04/04 11:36:26;;;;;;;;;;;;;;;17.47;39.44;100472.73;106480;1254;62217;-80
2024/04/04 11:38:54;;;;;;;;;;;;;;;17.59;40.64;100479.27;106641;1254;62155;-81
2024/04/04 11:41:22;;;;;;;;;;;;;;;17.70;39.09;100471.94;106485;1254;76216;-78
2024/04/04 11:43:49;;;;;;;;;;;;;;;17.74;38.96;100475.84;106425;1257;70991;-81
2024/04/04 11:46:17;;;;;;;;;;;;;;;17.78;37.80;100473.08;106499;1254;75215;-81
2024/04/04 11:48:45;;;;;;;;;;;;;;;17.80;38.65;100472.72;106359;1256;62530;-81
2024/04/04 11:51:12;;;;;;;;;;;;;;;17.99;38.31;100476.09;106482;1254;61268;-79
2024/04/04 11:53:40;;;;;;;;;;;;;;;18.18;38.01;100473.99;106363;1254;76467;-80
2024/04/04 11:56:07;;;;;;;;;;;;;;;18.25;37.82;100473.65;106539;1254;68080;-79
2024/04/04 11:58:38;;;;;;;;;;;;;;;18.29;38.72;100472.22;106372;1254;74904;-81
2024/04/04 12:01:06;;;;;;;;;;;;;;;18.38;38.42;100469.42;106628;1257;61936;-80
2024/04/04 12:03:33;;;;;;;;;;;;;;;18.55;37.92;100476.52;108144;1253;61999;-80
2024/04/04 12:06:00;;;;;;;;;;;;;;;18.79;37.08;100478.62;107917;1254;74325;-77
2024/04/04 12:08:28;;;;;;;;;;;;;;;19.07;36.96;100481.41;106692;1254;67593;-80
2024/04/04 12:11:00;;;;;;;;;;;;;;;19.29;36.40;100476.33;106580;1253;75005;-77
2024/04/04 12:13:32;;;;;;;;;;;;;;;19.42;36.09;100477.77;107365;1254;61278;-80
2024/04/04 12:15:59;;;;;;;;;;;;;;;19.36;34.90;100473.41;105933;1255;62161;-80
2024/04/04 12:21:16;;;;;;;;;;;;;;;18.77;35.62;100482.19;106093;1255;70697;-78
2024/04/04 12:23:44;;;;;;;;;;;;;;;18.80;35.95;100485.46;105977;1264;73652;-78
2024/04/04 12:26:19;;;;;;;;;;;;;;;19.14;35.88;100473.98;105981;1267;62014;-79
2024/04/04 12:28:49;;;;;;;;;;;;;;;19.49;36.08;100478.36;105987;1259;61972;-81
2024/04/04 12:31:16;;;;;;;;;;;;;;;19.61;35.30;100478.48;106017;1257;77699;-79
2024/04/04 12:33:44;;;;;;;;;;;;;;;19.53;33.87;100474.99;105874;1259;71045;-77